Terminal Aerodrome Forecast
Issued by NWS Des Moines, IA

Home | Current Version | Previous Version | Text Only | Print | Product List | Glossary On
Versions: 1 2 3 4 5 6 7 8 9 10 11 12 13 14 15 16 17 18 19 20 21 22 23 24
000
FTUS43 KDMX 251124
TAFDSM
TAF
KDSM 251124Z 2512/2612 29004KT P6SM SCT070 BKN250
     FM251400 31017G25KT P6SM FEW070
     FM260000 32009KT P6SM FEW100
     FM260800 VRB04KT P6SM VCSH OVC070=

USA.gov is the U.S. government's official web portal to all federal, state and local government web resources and services.